Saint Croix, Virgin Islands
Current Conditions -  °F | °C
As of 1:53 PM on Friday 31 Oct 2014 (Local Time) from TISX Reporting Station
Scattered Clouds Scattered Clouds  
Wind Chill: 84°   Ceiling: Unl
Heat Index: 91°   Visibility: 10mi
Dew Point: 73°   Wind: 10mph
Humidity: 70%   Direction: 120°ESE
Pressure: 29.88"   Gusts: NA
Location:  17.7°N, 64.8°W
Report Text: TISX 311753Z 12009KT 10SM SCT022 SCT026 29/23 A2988
Loading
Personal Weather Stations






























Interactive Weather Map
Tropical Storm Tracking
New forecast layout! Learn more

10-Day Weather Forecast

Advertisements
Track Severe Weather on mobile